Time;durP1;ratioP1;P1;durP2;ratioP2;P2;SDS_P1;SDS_P2;PMS_P1;PMS_P2;Temp;Humidity;BMP_temperature;BMP_pressure;BME280_temperature;BME280_humidity;BME280_pressure;Samples;Min_cycle;Max_cycle;Signal;HPM_P1;HPM_P2
2022/10/13 00:00:44;;;;;;;37.08;18.48;;;;;10.10;94560.00;;;;7397232;19;20145;-73
2022/10/13 00:03:14;;;;;;;36.13;17.40;;;;;10.20;94549.00;;;;7393063;19;20133;-73
2022/10/13 00:05:49;;;;;;;34.95;18.05;;;;;10.00;94550.00;;;;7397772;19;20166;-73
2022/10/13 00:08:20;;;;;;;37.65;17.45;;;;;9.90;94555.00;;;;7394059;19;20129;-72
2022/10/13 00:10:49;;;;;;;31.88;17.45;;;;;10.10;94533.00;;;;7398350;19;21003;-72
2022/10/13 00:13:26;;;;;;;35.67;16.33;;;;;10.20;94543.00;;;;7396344;19;20163;-73
2022/10/13 00:15:53;;;;;;;32.25;16.40;;;;;10.00;94543.00;;;;7400243;19;20155;-72
2022/10/13 00:18:28;;;;;;;32.00;16.65;;;;;10.10;94549.00;;;;7394027;19;20514;-72
2022/10/13 00:21:07;;;;;;;24.88;14.82;;;;;10.00;94547.00;;;;7398796;19;20121;-73
2022/10/13 00:23:35;;;;;;;36.65;16.42;;;;;10.20;94538.00;;;;7394205;19;20509;-72
2022/10/13 00:26:12;;;;;;;35.15;16.65;;;;;10.40;94546.00;;;;7398817;19;20151;-72
2022/10/13 00:28:46;;;;;;;29.48;16.83;;;;;10.40;94542.00;;;;7391483;19;20532;-72
2022/10/13 00:31:24;;;;;;;31.02;17.25;;;;;10.50;94541.00;;;;7394499;19;20137;-72
2022/10/13 00:34:00;;;;;;;27.90;15.55;;;;;10.40;94540.00;;;;7394390;19;20145;-73
2022/10/13 00:36:36;;;;;;;29.80;15.38;;;;;10.50;94538.00;;;;7395069;19;20136;-72
2022/10/13 00:39:03;;;;;;;28.05;15.00;;;;;10.40;94547.00;;;;7393587;19;20134;-72
2022/10/13 00:41:31;;;;;;;24.35;14.95;;;;;10.40;94542.00;;;;7394862;19;20137;-73
2022/10/13 00:44:25;;;;;;;28.08;14.70;;;;;10.30;94536.00;;;;7394167;19;20135;-72
2022/10/13 00:46:52;;;;;;;28.30;14.98;;;;;10.30;94528.00;;;;7397731;19;20997;-72
2022/10/13 00:49:26;;;;;;;30.33;14.10;;;;;10.40;94535.00;;;;7394537;19;20123;-72
2022/10/13 00:51:54;;;;;;;28.05;13.90;;;;;10.40;94536.00;;;;7396506;19;20141;-73
2022/10/13 00:54:24;;;;;;;23.75;13.63;;;;;10.30;94532.00;;;;7394543;19;20117;-72
2022/10/13 00:56:57;;;;;;;25.60;13.70;;;;;10.40;94534.00;;;;7399042;19;20154;-73
2022/10/13 00:59:27;;;;;;;31.30;14.05;;;;;10.40;94540.00;;;;7395840;19;20148;-71
2022/10/13 01:02:02;;;;;;;23.70;13.85;;;;;10.30;94540.00;;;;7396154;19;20121;-77
2022/10/13 01:04:45;;;;;;;24.95;13.07;;;;;10.20;94538.00;;;;7393870;19;20188;-76
2022/10/13 01:07:14;;;;;;;28.63;13.50;;;;;10.10;94531.00;;;;7396168;19;20216;-76
2022/10/13 01:09:50;;;;;;;23.25;13.25;;;;;10.10;94533.00;;;;7391392;19;20140;-77
2022/10/13 01:12:54;;;;;;;21.13;12.60;;;;;10.20;94537.00;;;;7394339;19;20164;-76
2022/10/13 01:15:39;;;;;;;24.95;12.90;;;;;10.10;94529.00;;;;7393658;19;20128;-77
2022/10/13 01:18:12;;;;;;;27.60;13.20;;;;;10.20;94533.00;;;;7398104;19;20129;-76
2022/10/13 01:21:11;;;;;;;22.35;11.70;;;;;10.00;94532.00;;;;7394555;19;20112;-77
2022/10/13 01:24:03;;;;;;;21.02;12.40;;;;;10.00;94530.00;;;;7391055;19;20149;-77
2022/10/13 01:27:05;;;;;;;27.25;12.88;;;;;9.90;94518.00;;;;7394801;19;20145;-75
2022/10/13 01:30:20;;;;;;;28.45;12.90;;;;;9.90;94526.00;;;;7392013;19;20137;-77
2022/10/13 01:33:04;;;;;;;19.25;11.20;;;;;9.90;94523.00;;;;7393472;19;20655;-76
2022/10/13 01:35:56;;;;;;;20.70;12.95;;;;;9.90;94524.00;;;;7394371;19;20216;-77
2022/10/13 01:38:49;;;;;;;24.90;12.00;;;;;9.90;94525.00;;;;7391752;19;20147;-79
2022/10/13 01:41:28;;;;;;;22.08;12.27;;;;;9.90;94517.00;;;;7393085;19;20164;-78
2022/10/13 01:44:31;;;;;;;29.63;12.30;;;;;9.90;94515.00;;;;7389955;19;20213;-78
2022/10/13 01:47:00;;;;;;;23.27;11.32;;;;;9.90;94509.00;;;;7391113;19;20231;-77
2022/10/13 01:49:35;;;;;;;20.27;11.75;;;;;9.80;94514.00;;;;7393867;19;20145;-77
2022/10/13 01:52:07;;;;;;;20.38;10.95;;;;;9.70;94507.00;;;;7391578;19;20135;-77
2022/10/13 01:54:49;;;;;;;19.15;10.90;;;;;9.70;94519.00;;;;7391703;19;20152;-78
2022/10/13 01:57:32;;;;;;;23.15;10.60;;;;;9.60;94514.00;;;;7393465;19;20138;-76
2022/10/13 02:00:20;;;;;;;23.02;10.73;;;;;9.50;94510.00;;;;7392436;19;20159;-76
2022/10/13 02:03:12;;;;;;;24.35;11.18;;;;;9.40;94503.00;;;;7390845;19;20212;-78
2022/10/13 02:06:23;;;;;;;22.77;11.05;;;;;9.60;94513.00;;;;7395787;19;20129;-78
2022/10/13 02:09:03;;;;;;;20.15;11.73;;;;;9.70;94509.00;;;;7390837;19;20140;-78
2022/10/13 02:11:45;;;;;;;22.42;11.27;;;;;9.80;94500.00;;;;7394770;19;20156;-77
2022/10/13 02:14:26;;;;;;;25.45;12.52;;;;;9.90;94516.00;;;;7391931;19;20139;-77
2022/10/13 02:17:03;;;;;;;23.40;11.70;;;;;10.00;94514.00;;;;7390739;19;20510;-77
2022/10/13 02:19:34;;;;;;;23.17;12.00;;;;;10.10;94518.00;;;;7391450;19;20148;-79
2022/10/13 02:22:10;;;;;;;24.63;12.38;;;;;10.10;94514.00;;;;7390384;19;20151;-80
2022/10/13 02:24:37;;;;;;;24.23;13.05;;;;;10.30;94505.00;;;;7388687;19;20129;-77
2022/10/13 02:27:06;;;;;;;20.65;11.73;;;;;10.20;94509.00;;;;7391683;19;20600;-78
2022/10/13 02:30:00;;;;;;;29.42;13.25;;;;;10.40;94509.00;;;;7391701;19;20591;-77
2022/10/13 02:32:27;;;;;;;20.63;13.07;;;;;10.40;94513.00;;;;7389848;19;20148;-77
2022/10/13 02:35:01;;;;;;;24.95;12.57;;;;;10.40;94506.00;;;;7391848;19;20136;-77
2022/10/13 02:37:29;;;;;;;27.95;12.38;;;;;10.30;94509.00;;;;7392272;19;20609;-78
2022/10/13 02:40:02;;;;;;;18.92;11.50;;;;;10.20;94501.00;;;;7389818;19;20151;-77
2022/10/13 02:42:38;;;;;;;21.98;12.40;;;;;10.20;94503.00;;;;7389056;19;20137;-77
2022/10/13 02:45:07;;;;;;;21.63;10.73;;;;;10.10;94505.00;;;;7391170;19;20145;-77
2022/10/13 02:47:39;;;;;;;21.42;10.20;;;;;10.10;94506.00;;;;7390458;19;20149;-76
2022/10/13 02:50:13;;;;;;;20.77;10.98;;;;;10.10;94498.00;;;;7391106;19;20466;-77
2022/10/13 02:52:41;;;;;;;23.42;10.73;;;;;10.20;94501.00;;;;7388272;19;20557;-75
2022/10/13 02:55:08;;;;;;;20.67;11.50;;;;;10.20;94498.00;;;;7390857;19;20141;-77
2022/10/13 02:57:43;;;;;;;25.83;12.80;;;;;10.40;94497.00;;;;7390652;19;20144;-76
2022/10/13 03:00:11;;;;;;;28.48;11.52;;;;;10.40;94501.00;;;;7390876;19;20121;-77
2022/10/13 03:02:39;;;;;;;24.38;10.73;;;;;10.40;94492.00;;;;7389899;19;20619;-77
2022/10/13 03:05:13;;;;;;;20.25;10.57;;;;;10.30;94503.00;;;;7390981;19;20603;-77
2022/10/13 03:07:43;;;;;;;23.02;10.73;;;;;10.20;94489.00;;;;7390672;19;20121;-78
2022/10/13 03:10:10;;;;;;;19.08;11.18;;;;;10.20;94486.00;;;;7389800;19;20159;-77
2022/10/13 03:12:44;;;;;;;22.30;11.73;;;;;10.10;94484.00;;;;7394951;19;20133;-77
2022/10/13 03:15:12;;;;;;;26.75;11.32;;;;;10.10;94487.00;;;;7397991;19;20132;-78
2022/10/13 03:17:42;;;;;;;26.55;11.43;;;;;10.20;94481.00;;;;7396745;19;20598;-77
2022/10/13 03:20:18;;;;;;;16.42;10.07;;;;;10.00;94485.00;;;;7399225;19;20147;-78
2022/10/13 03:22:46;;;;;;;17.38;9.60;;;;;9.90;94474.00;;;;7396758;19;20137;-77
2022/10/13 03:25:16;;;;;;;25.85;10.57;;;;;9.70;94474.00;;;;7397250;19;20152;-77
2022/10/13 03:27:57;;;;;;;26.42;10.40;;;;;9.70;94468.00;;;;7395886;19;20503;-76
2022/10/13 03:30:31;;;;;;;28.77;10.63;;;;;9.60;94481.00;;;;7397868;19;20495;-77
2022/10/13 03:33:05;;;;;;;20.40;10.95;;;;;9.70;94475.00;;;;7395529;19;20132;-79
2022/10/13 03:35:33;;;;;;;18.88;10.93;;;;;9.70;94484.00;;;;7397795;19;20611;-77
2022/10/13 03:38:05;;;;;;;21.85;11.70;;;;;9.60;94492.00;;;;7396402;19;20193;-78
2022/10/13 03:40:39;;;;;;;26.48;11.40;;;;;9.60;94493.00;;;;7397191;19;20604;-79
2022/10/13 03:43:07;;;;;;;29.63;11.30;;;;;9.40;94492.00;;;;7393544;19;20530;-76
2022/10/13 03:45:43;;;;;;;28.50;10.68;;;;;9.30;94487.00;;;;7398973;19;20125;-78
2022/10/13 03:48:17;;;;;;;20.85;10.00;;;;;9.30;94482.00;;;;7396470;19;20639;-77
2022/10/13 03:50:54;;;;;;;20.85;9.30;;;;;9.10;94478.00;;;;7396700;19;20153;-78
2022/10/13 03:53:24;;;;;;;29.38;10.52;;;;;9.00;94485.00;;;;7396494;19;20113;-79
2022/10/13 03:55:59;;;;;;;38.33;10.90;;;;;9.00;94479.00;;;;7398525;19;20128;-78
2022/10/13 03:58:29;;;;;;;26.67;11.35;;;;;9.00;94476.00;;;;7394197;19;20144;-77
2022/10/13 04:01:01;;;;;;;22.15;11.15;;;;;9.10;94468.00;;;;7398908;19;20604;-80
2022/10/13 04:03:35;;;;;;;32.17;11.93;;;;;9.00;94477.00;;;;7394375;19;20177;-80
2022/10/13 04:06:04;;;;;;;39.58;13.30;;;;;9.20;94476.00;;;;7398153;19;20169;-78
2022/10/13 04:08:35;;;;;;;25.73;13.48;;;;;9.10;94466.00;;;;7396583;19;20188;-79
2022/10/13 04:11:12;;;;;;;30.73;15.07;;;;;9.10;94465.00;;;;7399970;19;20132;-79
2022/10/13 04:13:41;;;;;;;32.47;14.60;;;;;9.10;94468.00;;;;7392078;19;20149;-79
2022/10/13 04:16:13;;;;;;;32.97;14.43;;;;;9.10;94476.00;;;;7398409;19;20450;-78
2022/10/13 04:18:55;;;;;;;41.65;15.80;;;;;9.20;94478.00;;;;7395424;19;20152;-79
2022/10/13 04:21:24;;;;;;;48.30;17.73;;;;;9.30;94477.00;;;;7393982;19;20207;-79
2022/10/13 04:24:01;;;;;;;36.70;15.33;;;;;9.30;94476.00;;;;7396022;19;20129;-80
2022/10/13 04:26:31;;;;;;;45.22;17.52;;;;;9.10;94471.00;;;;7395924;19;20129;-79
2022/10/13 04:29:01;;;;;;;48.50;17.38;;;;;9.20;94475.00;;;;7393328;19;20204;-80
2022/10/13 04:31:49;;;;;;;44.22;16.45;;;;;9.00;94483.00;;;;7395608;19;20141;-80
2022/10/13 04:34:16;;;;;;;37.92;17.02;;;;;8.90;94477.00;;;;7396022;19;20152;-78
2022/10/13 04:36:51;;;;;;;41.10;16.67;;;;;8.80;94474.00;;;;7394176;19;20121;-79
2022/10/13 04:39:21;;;;;;;39.30;17.40;;;;;9.00;94466.00;;;;7396713;19;20241;-80
2022/10/13 04:41:49;;;;;;;43.55;16.92;;;;;9.00;94465.00;;;;7395667;19;20125;-80
2022/10/13 04:44:23;;;;;;;45.38;16.50;;;;;8.90;94458.00;;;;7392455;19;20159;-80
2022/10/13 04:46:55;;;;;;;32.33;15.60;;;;;8.80;94451.00;;;;7395859;19;20156;-81
2022/10/13 04:49:25;;;;;;;42.63;16.27;;;;;8.80;94455.00;;;;7395466;19;20131;-81
2022/10/13 04:52:02;;;;;;;41.03;17.10;;;;;8.90;94463.00;;;;7392387;19;20686;-81
2022/10/13 04:54:34;;;;;;;60.60;17.67;;;;;8.90;94464.00;;;;7394136;19;20212;-80
2022/10/13 04:57:01;;;;;;;38.85;15.45;;;;;8.80;94463.00;;;;7393674;19;20147;-78
2022/10/13 04:59:35;;;;;;;37.90;17.42;;;;;8.90;94472.00;;;;7396340;19;20162;-79
2022/10/13 05:02:05;;;;;;;38.08;18.67;;;;;9.10;94463.00;;;;7396516;19;20121;-79
2022/10/13 05:04:32;;;;;;;47.47;19.07;;;;;9.10;94460.00;;;;7392845;19;20495;-80
2022/10/13 05:07:06;;;;;;;43.05;19.52;;;;;9.20;94456.00;;;;7393716;19;20140;-80
2022/10/13 05:09:50;;;;;;;42.85;18.35;;;;;9.10;94457.00;;;;7394409;19;20478;-79
2022/10/13 05:12:32;;;;;;;43.87;17.17;;;;;9.00;94457.00;;;;7392344;19;20156;-78
2022/10/13 05:14:59;;;;;;;43.85;17.08;;;;;9.00;94458.00;;;;7392333;19;20478;-80
2022/10/13 05:17:30;;;;;;;34.38;17.50;;;;;9.10;94449.00;;;;7393041;19;20141;-79
2022/10/13 05:20:04;;;;;;;38.05;16.48;;;;;9.10;94454.00;;;;7391726;19;20511;-81
2022/10/13 05:22:34;;;;;;;45.60;17.50;;;;;9.20;94459.00;;;;7392526;19;20161;-77
2022/10/13 05:25:02;;;;;;;40.30;18.00;;;;;9.10;94461.00;;;;7392043;19;20145;-82
2022/10/13 05:27:45;;;;;;;39.28;19.25;;;;;9.20;94469.00;;;;7393379;19;20646;-80
2022/10/13 05:30:21;;;;;;;46.88;17.95;;;;;9.10;94456.00;;;;7390301;19;20132;-77
2022/10/13 05:32:55;;;;;;;50.63;18.67;;;;;9.10;94461.00;;;;7394879;19;20149;-79
2022/10/13 05:35:23;;;;;;;48.28;17.90;;;;;9.00;94460.00;;;;7391538;19;20604;-79
2022/10/13 05:37:50;;;;;;;33.13;15.98;;;;;8.90;94454.00;;;;7394689;19;20133;-80
2022/10/13 05:40:24;;;;;;;49.57;18.70;;;;;9.00;94449.00;;;;7389953;19;20136;-78
2022/10/13 05:42:52;;;;;;;42.80;17.20;;;;;9.10;94449.00;;;;7392611;19;20163;-78
2022/10/13 05:45:22;;;;;;;45.17;17.55;;;;;8.90;94447.00;;;;7387542;19;20139;-79
2022/10/13 05:47:57;;;;;;;37.78;16.13;;;;;8.90;94441.00;;;;7394201;19;20152;-79
2022/10/13 05:50:25;;;;;;;39.90;17.47;;;;;9.00;94433.00;;;;7388384;19;20129;-80
2022/10/13 05:52:52;;;;;;;49.13;18.30;;;;;9.00;94428.00;;;;7391305;19;20159;-78
2022/10/13 05:55:26;;;;;;;30.92;16.35;;;;;9.10;94438.00;;;;7395194;19;20145;-80
2022/10/13 05:57:53;;;;;;;32.72;15.27;;;;;9.00;94440.00;;;;7389131;19;20145;-81
2022/10/13 06:00:23;;;;;;;47.42;13.00;;;;;8.90;94451.00;;;;7391791;19;20144;-81
2022/10/13 06:03:11;;;;;;;33.90;14.50;;;;;9.00;94438.00;;;;7390118;19;20136;-81
2022/10/13 06:05:39;;;;;;;29.45;15.15;;;;;9.10;94440.00;;;;7390891;19;20153;-80
2022/10/13 06:08:15;;;;;;;32.40;14.85;;;;;9.10;94433.00;;;;7389004;19;20124;-79
2022/10/13 06:10:43;;;;;;;30.30;13.30;;;;;9.10;94436.00;;;;7390595;19;20216;-80
2022/10/13 06:13:11;;;;;;;25.67;12.25;;;;;9.00;94437.00;;;;7391986;19;20145;-81
2022/10/13 06:15:47;;;;;;;24.17;12.45;;;;;9.10;94424.00;;;;7388827;19;20153;-81
2022/10/13 06:18:17;;;;;;;25.02;12.95;;;;;9.10;94432.00;;;;7389831;19;20197;-81
2022/10/13 06:20:47;;;;;;;25.10;14.15;;;;;9.10;94427.00;;;;7390613;19;20181;-81
2022/10/13 06:23:24;;;;;;;29.33;14.35;;;;;9.10;94426.00;;;;7392559;19;20647;-82
2022/10/13 06:25:55;;;;;;;26.48;14.52;;;;;9.20;94423.00;;;;7390940;19;20150;-81
2022/10/13 06:28:29;;;;;;;30.95;15.38;;;;;9.30;94426.00;;;;6878912;19;10012879;-81
2022/10/13 06:31:13;;;;;;;29.98;16.98;;;;;9.50;94427.00;;;;7393249;19;20156;-79
2022/10/13 06:33:47;;;;;;;30.05;15.68;;;;;9.60;94429.00;;;;7391148;19;20634;-79
2022/10/13 06:36:24;;;;;;;28.30;16.38;;;;;9.70;94428.00;;;;7395743;19;20152;-78
2022/10/13 06:38:52;;;;;;;31.70;16.95;;;;;9.80;94433.00;;;;7390969;19;20132;-80
2022/10/13 06:41:19;;;;;;;28.25;16.15;;;;;9.90;94437.00;;;;7394459;19;20125;-78
2022/10/13 06:43:58;;;;;;;26.00;14.63;;;;;10.10;94434.00;;;;7392165;19;20527;-79
2022/10/13 06:46:30;;;;;;;30.15;15.07;;;;;10.10;94442.00;;;;7393008;19;20121;-77
2022/10/13 06:49:00;;;;;;;21.60;14.40;;;;;10.10;94435.00;;;;7390746;19;20154;-77
2022/10/13 06:51:37;;;;;;;28.05;15.07;;;;;10.20;94417.00;;;;7397557;19;20517;-79
2022/10/13 06:54:04;;;;;;;23.75;15.05;;;;;10.30;94419.00;;;;7392467;19;20608;-76
2022/10/13 06:56:36;;;;;;;22.65;14.18;;;;;10.40;94433.00;;;;7393921;19;20729;-77
2022/10/13 06:59:11;;;;;;;25.20;13.57;;;;;10.40;94442.00;;;;7390051;19;20125;-76
2022/10/13 07:01:38;;;;;;;21.95;13.60;;;;;10.40;94442.00;;;;7393823;19;20143;-77
2022/10/13 07:04:11;;;;;;;26.95;13.40;;;;;10.40;94439.00;;;;7393996;19;20142;-75
2022/10/13 07:06:45;;;;;;;20.15;12.23;;;;;10.50;94445.00;;;;7386518;19;20607;-76
2022/10/13 07:09:13;;;;;;;22.90;12.15;;;;;10.50;94452.00;;;;7388522;19;20627;-77
2022/10/13 07:11:46;;;;;;;20.10;11.85;;;;;10.60;94448.00;;;;7384094;19;20138;-76
2022/10/13 07:14:22;;;;;;;16.02;11.65;;;;;10.50;94450.00;;;;7389158;19;20148;-75
2022/10/13 07:16:52;;;;;;;18.50;11.85;;;;;10.40;94445.00;;;;7387494;19;20176;-76
2022/10/13 07:19:22;;;;;;;16.33;10.93;;;;;10.60;94443.00;;;;7383498;19;20247;-76
2022/10/13 07:21:57;;;;;;;22.63;11.77;;;;;10.60;94446.00;;;;7383761;19;20121;-76
2022/10/13 07:24:29;;;;;;;15.63;10.02;;;;;10.70;94438.00;;;;7384898;19;20176;-75
2022/10/13 07:26:56;;;;;;;15.15;10.82;;;;;10.90;94433.00;;;;7382072;19;20129;-77
2022/10/13 07:29:47;;;;;;;16.40;10.43;;;;;10.90;94433.00;;;;7385223;19;20619;-75
2022/10/13 07:32:17;;;;;;;17.92;10.70;;;;;11.10;94428.00;;;;7387194;19;20230;-77
2022/10/13 07:34:57;;;;;;;17.80;10.40;;;;;11.10;94429.00;;;;7387644;19;20228;-75
2022/10/13 07:37:25;;;;;;;17.95;10.38;;;;;11.20;94425.00;;;;7386549;19;20129;-77
2022/10/13 07:39:53;;;;;;;16.13;11.32;;;;;11.40;94418.00;;;;7385185;19;20473;-75
2022/10/13 07:42:27;;;;;;;17.00;9.65;;;;;11.40;94404.00;;;;7380989;19;20132;-75
2022/10/13 07:44:55;;;;;;;15.00;9.50;;;;;11.60;94413.00;;;;7386056;19;20461;-76
2022/10/13 07:47:27;;;;;;;13.80;8.35;;;;;11.70;94413.00;;;;7383422;19;20628;-74
2022/10/13 07:50:02;;;;;;;10.02;8.50;;;;;11.70;94399.00;;;;7381882;19;20143;-76
2022/10/13 07:52:29;;;;;;;12.90;8.68;;;;;11.80;94407.00;;;;7380518;19;20177;-75
2022/10/13 07:54:59;;;;;;;14.05;7.72;;;;;12.10;94403.00;;;;7379494;19;20524;-75
2022/10/13 07:57:33;;;;;;;10.23;7.63;;;;;12.20;94395.00;;;;7382956;19;20152;-74
2022/10/13 08:00:02;;;;;;;11.98;8.63;;;;;12.50;94400.00;;;;7389542;19;20153;-75
2022/10/13 08:02:35;;;;;;;15.10;7.60;;;;;12.60;94407.00;;;;7386521;19;20604;-75
2022/10/13 08:05:08;;;;;;;9.50;7.75;;;;;12.70;94401.00;;;;7388468;19;20148;-75
2022/10/13 08:07:38;;;;;;;13.10;8.43;;;;;12.90;94409.00;;;;7391575;19;20588;-75
2022/10/13 08:10:06;;;;;;;15.23;8.85;;;;;13.10;94409.00;;;;7393476;19;20209;-76
2022/10/13 08:12:40;;;;;;;14.23;8.52;;;;;13.10;94407.00;;;;7390105;19;20124;-75
2022/10/13 08:15:13;;;;;;;17.73;8.63;;;;;13.20;94403.00;;;;7391088;19;20490;-74
2022/10/13 08:17:40;;;;;;;12.23;8.30;;;;;13.20;94408.00;;;;7388912;19;20232;-74
2022/10/13 08:20:14;;;;;;;12.00;8.73;;;;;13.30;94407.00;;;;7393777;19;20163;-74
2022/10/13 08:22:44;;;;;;;9.98;7.95;;;;;13.40;94399.00;;;;7388064;19;20631;-75
2022/10/13 08:25:12;;;;;;;12.27;8.52;;;;;13.30;94402.00;;;;7391285;19;20132;-75
2022/10/13 08:27:59;;;;;;;10.88;7.45;;;;;13.20;94400.00;;;;7388507;19;20141;-73
2022/10/13 08:30:36;;;;;;;14.05;8.60;;;;;13.10;94402.00;;;;7388283;19;20148;-74
2022/10/13 08:33:12;;;;;;;9.85;8.30;;;;;13.20;94399.00;;;;7391466;19;20145;-74
2022/10/13 08:35:41;;;;;;;12.88;7.97;;;;;13.00;94404.00;;;;7388925;19;20128;-76
2022/10/13 08:38:09;;;;;;;16.42;9.55;;;;;13.00;94405.00;;;;7391021;19;20156;-73
2022/10/13 08:40:50;;;;;;;12.27;8.82;;;;;13.10;94414.00;;;;7389212;19;20129;-75
2022/10/13 08:43:21;;;;;;;12.98;8.90;;;;;13.30;94417.00;;;;7388594;19;20128;-74
2022/10/13 08:46:00;;;;;;;13.18;8.23;;;;;13.50;94407.00;;;;7388765;19;20986;-74
2022/10/13 08:48:31;;;;;;;13.25;7.95;;;;;13.50;94410.00;;;;7388045;19;20840;-74
2022/10/13 08:51:07;;;;;;;12.68;8.20;;;;;13.60;94412.00;;;;7392937;19;20156;-75
2022/10/13 08:53:41;;;;;;;9.00;7.95;;;;;13.80;94417.00;;;;7388267;19;20125;-74
2022/10/13 08:56:32;;;;;;;9.00;7.28;;;;;13.80;94418.00;;;;7386503;19;20144;-74
2022/10/13 08:59:12;;;;;;;10.55;7.68;;;;;13.60;94406.00;;;;7390600;19;20169;-75
2022/10/13 09:01:48;;;;;;;11.93;7.00;;;;;13.70;94410.00;;;;7388492;19;20159;-75
2022/10/13 09:04:30;;;;;;;12.32;6.85;;;;;13.60;94413.00;;;;7386225;19;20140;-74
2022/10/13 09:07:25;;;;;;;8.15;6.72;;;;;13.60;94413.00;;;;7389212;19;20627;-74
2022/10/13 09:09:54;;;;;;;6.78;6.00;;;;;13.50;94406.00;;;;7390708;19;20450;-73
2022/10/13 09:12:28;;;;;;;12.00;8.07;;;;;13.60;94401.00;;;;7387418;19;20137;-74
2022/10/13 09:15:04;;;;;;;11.93;7.68;;;;;13.80;94406.00;;;;7389416;19;20603;-74
2022/10/13 09:17:40;;;;;;;16.30;7.88;;;;;14.20;94401.00;;;;7385833;19;20185;-73
2022/10/13 09:20:26;;;;;;;10.90;7.50;;;;;14.30;94398.00;;;;7390614;19;20620;-74
2022/10/13 09:23:17;;;;;;;11.82;6.53;;;;;14.60;94400.00;;;;7391378;19;20196;-74
2022/10/13 09:25:50;;;;;;;7.97;5.90;;;;;14.50;94406.00;;;;7387733;19;20833;-74
2022/10/13 09:28:32;;;;;;;10.60;6.95;;;;;14.50;94403.00;;;;7388035;19;20495;-73
2022/10/13 09:31:15;;;;;;;10.45;6.13;;;;;14.50;94403.00;;;;7388142;19;20132;-73
2022/10/13 09:34:01;;;;;;;9.15;6.22;;;;;14.50;94407.00;;;;7385939;19;20131;-75
2022/10/13 09:36:30;;;;;;;8.60;6.00;;;;;14.50;94402.00;;;;7385671;19;20137;-74
2022/10/13 09:39:15;;;;;;;10.20;7.05;;;;;14.60;94407.00;;;;7387734;19;20203;-74
2022/10/13 09:41:43;;;;;;;10.40;6.00;;;;;14.70;94410.00;;;;7388190;19;20129;-74
2022/10/13 09:44:30;;;;;;;12.98;5.95;;;;;14.60;94408.00;;;;7385962;19;20124;-73
2022/10/13 09:47:03;;;;;;;8.43;5.32;;;;;14.50;94408.00;;;;7389464;19;20212;-73
2022/10/13 09:49:40;;;;;;;6.80;4.90;;;;;14.50;94415.00;;;;7384122;19;20144;-74
2022/10/13 09:52:16;;;;;;;10.32;5.07;;;;;14.30;94406.00;;;;7388610;19;20294;-73
2022/10/13 09:54:58;;;;;;;7.45;4.90;;;;;14.10;94411.00;;;;7387967;19;20572;-72
2022/10/13 09:57:28;;;;;;;7.22;5.13;;;;;14.20;94405.00;;;;7385820;19;20587;-75
2022/10/13 10:00:15;;;;;;;10.75;5.00;;;;;14.10;94413.00;;;;7388140;19;20643;-74
2022/10/13 10:02:57;;;;;;;5.95;4.78;;;;;14.20;94411.00;;;;7390089;19;20133;-74
2022/10/13 10:05:49;;;;;;;11.27;7.05;;;;;14.10;94415.00;;;;7390718;19;20133;-73
2022/10/13 10:08:32;;;;;;;11.10;5.40;;;;;13.80;94418.00;;;;7389784;19;20159;-73
2022/10/13 10:11:40;;;;;;;9.48;5.90;;;;;14.00;94409.00;;;;7386322;19;20605;-74
2022/10/13 10:14:25;;;;;;;11.35;7.00;;;;;14.00;94410.00;;;;7386319;19;20615;-73
2022/10/13 10:17:27;;;;;;;10.10;6.15;;;;;14.20;94399.00;;;;7391133;19;20577;-74
2022/10/13 10:20:18;;;;;;;9.80;6.13;;;;;14.30;94397.00;;;;7391303;19;20133;-74
2022/10/13 10:23:04;;;;;;;13.65;6.82;;;;;14.60;94394.00;;;;7388798;19;20188;-74
2022/10/13 10:25:52;;;;;;;11.65;5.95;;;;;14.80;94395.00;;;;7395568;19;20129;-74
2022/10/13 10:29:06;;;;;;;10.57;6.35;;;;;15.30;94397.00;;;;7389509;19;20177;-73
2022/10/13 10:31:39;;;;;;;13.18;7.65;;;;;15.00;94403.00;;;;7390990;19;20124;-74
2022/10/13 10:34:33;;;;;;;8.40;5.97;;;;;14.80;94395.00;;;;7385962;19;20159;-75
2022/10/13 10:37:36;;;;;;;10.50;6.55;;;;;15.00;94393.00;;;;7391457;19;20148;-73
2022/10/13 10:40:31;;;;;;;9.40;6.32;;;;;15.30;94385.00;;;;7384707;19;20572;-73
2022/10/13 10:43:21;;;;;;;11.35;6.55;;;;;15.50;94378.00;;;;7385516;19;20420;-74
2022/10/13 10:45:57;;;;;;;8.90;6.10;;;;;15.50;94380.00;;;;7386895;19;20647;-74
2022/10/13 10:48:52;;;;;;;9.55;5.80;;;;;15.60;94375.00;;;;7384458;19;20163;-73
2022/10/13 10:51:32;;;;;;;10.73;5.55;;;;;15.50;94375.00;;;;7385936;19;20136;-74
2022/10/13 10:54:02;;;;;;;10.63;6.45;;;;;15.40;94376.00;;;;7387776;19;20190;-75
2022/10/13 10:56:43;;;;;;;10.43;6.53;;;;;15.50;94380.00;;;;7384184;19;20132;-75
2022/10/13 10:59:25;;;;;;;11.63;6.47;;;;;15.60;94368.00;;;;7386784;19;20492;-73
2022/10/13 11:02:33;;;;;;;13.77;6.60;;;;;15.60;94364.00;;;;7384639;19;20608;-74
2022/10/13 11:05:01;;;;;;;14.50;6.68;;;;;15.50;94357.00;;;;7385084;19;20513;-74
2022/10/13 11:07:42;;;;;;;12.73;6.68;;;;;15.50;94352.00;;;;7384908;19;20607;-74
2022/10/13 11:10:11;;;;;;;14.10;6.20;;;;;15.40;94352.00;;;;7384755;19;20145;-74
2022/10/13 11:12:50;;;;;;;12.45;6.60;;;;;15.50;94351.00;;;;7385606;19;20137;-76
2022/10/13 11:15:30;;;;;;;17.73;7.28;;;;;15.90;94342.00;;;;7385583;19;20157;-75
2022/10/13 11:18:42;;;;;;;11.20;6.30;;;;;16.10;94345.00;;;;7384508;19;20135;-76
2022/10/13 11:21:10;;;;;;;10.68;7.35;;;;;16.60;94340.00;;;;7385101;19;20566;-75
2022/10/13 11:23:48;;;;;;;14.45;6.57;;;;;17.10;94336.00;;;;7387494;19;20487;-76
2022/10/13 11:26:41;;;;;;;12.65;6.32;;;;;17.20;94339.00;;;;7384797;19;20137;-74
2022/10/13 11:29:53;;;;;;;11.63;5.65;;;;;16.90;94339.00;;;;7385809;19;20155;-73
2022/10/13 11:32:29;;;;;;;9.10;5.80;;;;;16.40;94341.00;;;;7387663;19;20167;-75
2022/10/13 11:35:04;;;;;;;12.75;5.25;;;;;16.00;94338.00;;;;7393382;19;20152;-74
2022/10/13 11:37:47;;;;;;;10.00;4.75;;;;;15.80;94337.00;;;;7392411;19;20155;-75
2022/10/13 11:41:11;;;;;;;8.20;5.28;;;;;15.70;94335.00;;;;7398230;19;20224;-74
2022/10/13 11:43:51;;;;;;;10.02;4.95;;;;;15.50;94330.00;;;;7395621;19;20139;-74
2022/10/13 11:46:45;;;;;;;11.73;5.53;;;;;15.60;94321.00;;;;7397143;19;20143;-75
2022/10/13 11:49:29;;;;;;;14.73;5.70;;;;;15.80;94323.00;;;;7395467;19;20207;-74
2022/10/13 11:52:30;;;;;;;10.10;4.70;;;;;15.90;94312.00;;;;7394388;19;20588;-79
2022/10/13 11:55:16;;;;;;;10.40;4.70;;;;;16.30;94297.00;;;;7396152;19;20137;-75
2022/10/13 11:57:50;;;;;;;9.23;4.30;;;;;16.40;94304.00;;;;7395195;19;20526;-74
2022/10/13 12:00:21;;;;;;;5.97;3.97;;;;;16.50;94295.00;;;;7394354;19;20136;-74
2022/10/13 12:02:50;;;;;;;6.43;3.90;;;;;16.70;94286.00;;;;7395551;19;20141;-75
2022/10/13 12:05:28;;;;;;;7.40;4.38;;;;;17.30;94277.00;;;;7395589;19;20143;-75
2022/10/13 12:08:03;;;;;;;11.13;4.15;;;;;18.00;94281.00;;;;7396232;19;20132;-75
2022/10/13 12:10:38;;;;;;;11.90;4.05;;;;;18.20;94275.00;;;;7392205;19;20144;-75
2022/10/13 12:13:05;;;;;;;6.13;3.60;;;;;18.00;94276.00;;;;7396740;19;20489;-74
2022/10/13 12:15:40;;;;;;;6.18;3.42;;;;;17.30;94261.00;;;;7395105;19;20160;-75
2022/10/13 12:18:38;;;;;;;6.25;4.20;;;;;17.10;94264.00;;;;7396321;19;20129;-75
2022/10/13 12:21:15;;;;;;;8.30;4.15;;;;;16.90;94264.00;;;;7393815;19;20614;-75
2022/10/13 12:23:50;;;;;;;11.02;3.85;;;;;16.90;94258.00;;;;7395709;19;20127;-75
2022/10/13 12:26:21;;;;;;;11.80;4.18;;;;;16.80;94263.00;;;;7394906;19;20204;-75
2022/10/13 12:29:16;;;;;;;6.18;4.03;;;;;16.80;94264.00;;;;7393079;19;20168;-75
2022/10/13 12:31:51;;;;;;;11.10;4.35;;;;;16.50;94264.00;;;;7394999;19;20141;-74
2022/10/13 12:34:36;;;;;;;6.95;4.13;;;;;16.50;94256.00;;;;7395016;19;20133;-75
2022/10/13 12:37:25;;;;;;;10.60;4.32;;;;;16.40;94260.00;;;;7394967;19;20599;-75
2022/10/13 12:40:03;;;;;;;7.60;3.70;;;;;16.10;94264.00;;;;7394088;19;20163;-76
2022/10/13 12:42:33;;;;;;;9.30;4.05;;;;;16.00;94262.00;;;;7394646;19;20137;-75
2022/10/13 12:45:17;;;;;;;6.55;3.97;;;;;16.00;94269.00;;;;7396706;19;20121;-76
2022/10/13 12:47:49;;;;;;;5.63;3.92;;;;;15.90;94264.00;;;;7394808;19;20136;-76
2022/10/13 12:50:31;;;;;;;8.10;4.65;;;;;15.90;94270.00;;;;7391821;19;20136;-76
2022/10/13 12:53:13;;;;;;;6.72;4.03;;;;;15.90;94264.00;;;;7393292;19;20203;-76